Niles, Ohio
Current Conditions -  °F | °C
As of 12:39 PM on Thursday 30 Oct 2014 (Local Time) from KYNG Reporting Station
Overcast Overcast  
Wind Chill: 45°   Ceiling: 4200
Heat Index: 48°   Visibility: 10mi
Dew Point: 37°   Wind: 7mph
Humidity: 66%   Direction: 310°NW
Pressure: 30.1"   Gusts: NA
Location:  41.18°N, 80.76°W
Report Text: KYNG 301639Z 31006KT 10SM SCT025 OVC042 09/03 A3010 RMK AO2 T00890028 $
Loading
Personal Weather Stations






























Interactive Weather Map
Tropical Storm Tracking
New forecast layout! Learn more

10-Day Weather Forecast

Advertisements
Track Severe Weather on mobile